createdAt,value
2018-06-20T00:04:50.938Z,3.49
2018-06-20T00:10:51.694Z,3.6
2018-06-20T00:14:52.466Z,3.44
2018-06-20T00:20:53.353Z,3.64
2018-06-20T00:24:54.129Z,3.34
2018-06-20T00:26:54.810Z,3.72
2018-06-20T00:30:55.527Z,3.32
2018-06-20T00:36:56.242Z,3.18
2018-06-20T00:40:56.921Z,3.01
2018-06-20T00:46:58.004Z,2.89
2018-06-20T00:52:58.763Z,3.02
2018-06-20T00:56:59.429Z,2.45
2018-06-20T01:03:00.172Z,2.95
2018-06-20T01:07:00.954Z,2.64
2018-06-20T01:09:01.550Z,3.2
2018-06-20T01:13:02.236Z,3.02
2018-06-20T01:19:03.042Z,3.72
2018-06-20T01:23:03.908Z,3.2
2018-06-20T01:29:04.636Z,3.27
2018-06-20T01:33:05.393Z,3.27
2018-06-20T01:35:06.172Z,3.53
2018-06-20T01:39:06.891Z,3.48
2018-06-20T01:45:07.628Z,3.37
2018-06-20T01:49:08.346Z,3.39
2018-06-20T01:55:09.067Z,2.93
2018-06-20T02:01:09.856Z,3.48
2018-06-20T02:05:10.577Z,3.01
2018-06-20T02:11:11.416Z,3.84
2018-06-20T02:15:12.631Z,3.68
2018-06-20T02:17:13.193Z,3.72
2018-06-20T02:21:13.890Z,3.33
2018-06-20T02:27:14.599Z,3.38
2018-06-20T02:31:15.383Z,3.33
2018-06-20T02:37:16.083Z,3.67
2018-06-20T02:43:16.872Z,3.63
2018-06-20T02:47:17.629Z,3.48
2018-06-20T02:53:18.352Z,3.63
2018-06-20T02:57:19.085Z,3.53
2018-06-20T02:59:19.821Z,3.97
2018-06-20T03:03:20.560Z,4.03
2018-06-20T03:09:21.311Z,4.16
2018-06-20T03:13:22.155Z,4.11
2018-06-20T03:19:22.901Z,4.18
2018-06-20T03:23:23.671Z,3.92
2018-06-20T03:25:24.369Z,4.25
2018-06-20T03:29:25.155Z,3.53
2018-06-20T03:35:25.933Z,3.65
2018-06-20T03:39:26.742Z,3.35
2018-06-20T03:45:28.131Z,4.4
2018-06-20T03:51:28.963Z,4.02
2018-06-20T03:55:29.888Z,3.92
2018-06-20T04:01:30.656Z,4.09
2018-06-20T04:05:31.452Z,3.7
2018-06-20T04:07:32.114Z,4.21
2018-06-20T04:11:32.907Z,3.98
2018-06-20T04:17:33.769Z,4.21
2018-06-20T04:21:34.472Z,3.76
2018-06-20T04:27:35.186Z,4.53
2018-06-20T04:33:35.868Z,4.61
2018-06-20T04:37:36.699Z,3.94
2018-06-20T04:43:37.526Z,4.47
2018-06-20T04:47:38.334Z,4.29
2018-06-20T04:53:39.072Z,4.14
2018-06-20T04:59:39.828Z,4.71
2018-06-20T05:03:40.733Z,4.41
2018-06-20T05:09:41.656Z,4.49
2018-06-20T05:13:42.550Z,4.35
2018-06-20T05:15:43.173Z,4.93
2018-06-20T05:19:43.876Z,5.35
2018-06-20T05:25:44.665Z,5.22
2018-06-20T05:29:45.508Z,5.42
2018-06-20T05:35:46.300Z,5.02
2018-06-20T05:41:47.210Z,4.64
2018-06-20T05:45:47.897Z,4.35
2018-06-20T05:51:48.680Z,4.47
2018-06-20T05:55:49.504Z,4.36
2018-06-20T05:57:50.248Z,4.54
2018-06-20T06:01:51.072Z,3.78
2018-06-20T06:07:51.779Z,4.52
2018-06-20T06:11:52.598Z,4.37
2018-06-20T06:17:53.293Z,4.3
2018-06-20T06:21:54.033Z,4.18
2018-06-20T06:23:54.826Z,3.63
2018-06-20T06:27:55.558Z,3.51
2018-06-20T06:33:56.298Z,3.48
2018-06-20T06:37:57.035Z,5.01
2018-06-20T06:43:57.886Z,3
2018-06-20T06:49:58.748Z,3.01
2018-06-20T06:53:59.274Z,3.24
2018-06-20T07:00:00.126Z,2.99
2018-06-20T07:04:00.829Z,2.97
2018-06-20T07:06:01.627Z,2.94
2018-06-20T07:10:02.414Z,2.89
2018-06-20T07:16:03.261Z,3.22
2018-06-20T07:20:04.525Z,2.57
2018-06-20T07:26:05.098Z,3.51
2018-06-20T07:32:05.894Z,3.43
2018-06-20T07:36:06.822Z,3.04
2018-06-20T07:42:07.415Z,3.06
2018-06-20T07:46:08.246Z,2.86
2018-06-20T07:52:08.982Z,3.07
2018-06-20T07:58:09.761Z,2.93
2018-06-20T08:02:10.535Z,3.1
2018-06-20T08:08:11.288Z,3.19
2018-06-20T08:12:12.182Z,2.75
2018-06-20T08:14:12.839Z,3.43
2018-06-20T08:18:13.631Z,2.9
2018-06-20T08:24:14.317Z,2.89
2018-06-20T08:28:15.052Z,2.89
2018-06-20T08:34:15.910Z,2.76
2018-06-20T08:40:16.806Z,2.88
2018-06-20T08:44:17.644Z,3.26
2018-06-20T08:50:18.232Z,3.47
2018-06-20T08:54:19.026Z,3.46
2018-06-20T08:56:19.879Z,3.35
2018-06-20T09:00:20.972Z,3.01
2018-06-20T09:06:21.803Z,2.93
2018-06-20T09:10:22.646Z,2.87
2018-06-20T09:16:23.341Z,2.8
2018-06-20T09:22:24.111Z,3.36
2018-06-20T09:26:24.954Z,2.68
2018-06-20T09:32:26.109Z,3.47
2018-06-20T09:36:26.964Z,3.04
2018-06-20T09:42:27.743Z,2.9
2018-06-20T09:48:28.452Z,2.88
2018-06-20T09:52:29.093Z,2.93
2018-06-20T09:58:29.873Z,2.94
2018-06-20T10:02:30.587Z,3.02
2018-06-20T10:04:31.306Z,3.02
2018-06-20T10:08:32.215Z,2.74
2018-06-20T10:14:33.087Z,2.97
2018-06-20T10:18:33.937Z,2.99
2018-06-20T10:24:34.713Z,2.78
2018-06-20T10:30:35.939Z,2.62
2018-06-20T10:34:36.712Z,2.62
2018-06-20T10:40:37.522Z,2.85
2018-06-20T10:44:38.306Z,2.93
2018-06-20T10:46:38.980Z,3.1
2018-06-20T10:50:39.719Z,3.26
2018-06-20T10:56:40.531Z,3.14
2018-06-20T11:00:41.348Z,3.27
2018-06-20T11:06:42.195Z,2.8
2018-06-20T11:12:43.030Z,2.96
2018-06-20T11:16:43.743Z,2.99
2018-06-20T11:22:44.618Z,2.82
2018-06-20T11:26:45.406Z,2.99
2018-06-20T11:28:46.060Z,3
2018-06-20T11:32:46.781Z,2.98
2018-06-20T11:38:47.569Z,3.38
2018-06-20T11:42:48.464Z,3.34
2018-06-20T11:48:49.108Z,3.25
2018-06-20T11:54:49.996Z,3.3
2018-06-20T11:58:50.896Z,3.52
2018-06-20T12:04:51.857Z,2.89
2018-06-20T12:08:52.724Z,3.11
2018-06-20T12:14:53.496Z,2.99
2018-06-20T12:20:54.344Z,2.91
2018-06-20T12:24:55.171Z,2.95
2018-06-20T12:30:55.896Z,3.02
2018-06-20T12:34:56.592Z,2.9
2018-06-20T12:36:57.345Z,2.93
2018-06-20T12:40:58.189Z,2.85
2018-06-20T12:46:58.900Z,3.84
2018-06-20T12:50:59.544Z,3.92
2018-06-20T12:57:00.265Z,3.14
2018-06-20T13:03:06.735Z,3.62
2018-06-20T13:07:07.519Z,3.24
2018-06-20T13:13:08.227Z,3.66
2018-06-20T13:17:08.935Z,3.46
2018-06-20T13:19:09.750Z,3.13
2018-06-20T13:23:10.514Z,3.38
2018-06-20T13:29:11.329Z,3.73
2018-06-20T13:33:12.088Z,3.39
2018-06-20T13:39:12.913Z,3.24
2018-06-20T13:43:13.655Z,3.33
2018-06-20T13:45:14.977Z,3.48
2018-06-20T13:49:15.665Z,3.67
2018-06-20T13:55:16.424Z,3.15
2018-06-20T13:59:17.439Z,3.35
2018-06-20T14:05:18.024Z,4.39
2018-06-20T14:11:18.877Z,3.12
2018-06-20T14:15:20.284Z,3.37
2018-06-20T14:21:21.086Z,3.61
2018-06-20T14:25:21.840Z,3.64
2018-06-20T14:27:22.572Z,3.67
2018-06-20T14:31:23.384Z,4.24
2018-06-20T14:37:24.051Z,3.02
2018-06-20T14:41:24.775Z,3.12
2018-06-20T14:47:25.481Z,3.37
2018-06-20T14:53:26.239Z,2.76
2018-06-20T14:57:27.041Z,2.72
2018-06-20T15:03:27.779Z,4.85
2018-06-20T15:07:28.559Z,3.63
2018-06-20T15:09:29.254Z,3.24
2018-06-20T15:13:29.944Z,3.34
2018-06-20T15:19:30.700Z,3.01
2018-06-20T15:23:31.444Z,2.84
2018-06-20T15:29:32.228Z,2.86
2018-06-20T15:35:33.179Z,3.19
2018-06-20T15:39:33.994Z,3.17
2018-06-20T15:45:34.849Z,2.98
2018-06-20T15:49:35.524Z,3.16
2018-06-20T15:55:36.240Z,2.56
2018-06-20T16:01:37.125Z,3.4
2018-06-20T16:05:37.929Z,3.53
2018-06-20T16:11:38.614Z,3.32
2018-06-20T16:15:39.316Z,3.49
2018-06-20T16:17:40.111Z,3.61
2018-06-20T16:21:40.873Z,3.14
2018-06-20T16:27:41.633Z,3.52
2018-06-20T16:31:43.069Z,3.41
2018-06-20T16:37:44.002Z,3.22
2018-06-20T16:43:44.955Z,3.42
2018-06-20T16:47:45.757Z,3.5
2018-06-20T16:53:46.593Z,3.18
2018-06-20T16:57:47.319Z,3.18
2018-06-20T16:59:48.308Z,3.63
2018-06-20T17:03:49.090Z,3.55
2018-06-20T17:09:49.946Z,3.48
2018-06-20T17:13:50.784Z,3.6
2018-06-20T17:19:51.649Z,3.35
2018-06-20T17:25:52.664Z,4.02
2018-06-20T17:29:53.406Z,3.35
2018-06-20T17:35:54.351Z,3.34
2018-06-20T17:39:55.038Z,3.69
2018-06-20T17:41:55.892Z,3.66
2018-06-20T17:45:56.607Z,3.82
2018-06-20T17:51:57.441Z,3.67
2018-06-20T17:55:58.358Z,3.55
2018-06-20T18:02:00.715Z,3.96
2018-06-20T18:06:01.607Z,3.77
2018-06-20T18:08:02.295Z,3.69
2018-06-20T18:12:03.132Z,3.46
2018-06-20T18:18:04.110Z,3.91
2018-06-20T18:22:04.775Z,3.58
2018-06-20T18:28:05.531Z,4.02
2018-06-20T18:32:06.400Z,3.63
2018-06-20T18:34:09.623Z,4.44
2018-06-20T18:38:13.021Z,4.14
2018-06-20T18:44:16.306Z,3.82
2018-06-20T18:48:17.331Z,3.67
2018-06-20T18:54:18.117Z,4.37
2018-06-20T18:58:18.827Z,4.12
2018-06-20T19:04:19.578Z,4.06
2018-06-20T19:10:20.405Z,4.2
2018-06-20T19:14:21.441Z,4.05
2018-06-20T19:20:22.310Z,4.5
2018-06-20T19:24:23.067Z,4.36
2018-06-20T19:26:23.693Z,4.22
2018-06-20T19:30:25.358Z,3.99
2018-06-20T19:36:26.317Z,4.08
2018-06-20T19:40:27.212Z,3.93
2018-06-20T19:46:28.029Z,4.49
2018-06-20T19:50:28.867Z,4.06
2018-06-20T19:52:29.613Z,3.93
2018-06-20T19:56:30.418Z,4.18
2018-06-20T20:02:31.249Z,4.69
2018-06-20T20:06:32.019Z,4.64
2018-06-20T20:12:32.836Z,4.4
2018-06-20T20:16:33.572Z,4.09
2018-06-20T20:18:34.377Z,4.97
2018-06-20T20:22:35.097Z,4.4
2018-06-20T20:28:35.818Z,4.91
2018-06-20T20:32:36.604Z,4.93
2018-06-20T20:38:37.634Z,6.18
2018-06-20T20:42:38.284Z,5.79
2018-06-20T20:44:39.048Z,6.44
2018-06-20T20:48:39.770Z,6.09
2018-06-20T20:54:40.471Z,6.41
2018-06-20T20:58:41.248Z,5.74
2018-06-20T21:04:42.141Z,6.01
2018-06-20T21:08:43.319Z,5.7
2018-06-20T21:10:44.044Z,7.34
2018-06-20T21:14:44.741Z,7.18
2018-06-20T21:20:45.532Z,6.67
2018-06-20T21:24:46.281Z,7.29
2018-06-20T21:30:46.950Z,7.06
2018-06-20T21:36:47.733Z,6.06
2018-06-20T21:40:48.816Z,6.64
2018-06-20T21:46:49.664Z,6.66
2018-06-20T21:50:50.820Z,6.03
2018-06-20T21:56:51.599Z,7.27
2018-06-20T22:02:52.376Z,6.53
2018-06-20T22:06:53.120Z,6.13
2018-06-20T22:12:53.907Z,6.37
2018-06-20T22:16:54.590Z,6.11
2018-06-20T22:22:55.429Z,4.45
2018-06-20T22:28:56.195Z,4.95
2018-06-20T22:32:56.986Z,5.28
2018-06-20T22:38:57.816Z,6.66
2018-06-20T22:42:58.451Z,7.44
2018-06-20T22:48:59.193Z,6.67
2018-06-20T22:54:59.939Z,7.35
2018-06-20T22:59:00.676Z,7.36
2018-06-20T23:05:01.539Z,7.52
2018-06-20T23:09:02.317Z,7.41
2018-06-20T23:15:03.028Z,7.07
2018-06-20T23:21:03.779Z,7.14
2018-06-20T23:25:04.520Z,7.84
2018-06-20T23:31:05.169Z,7.56
2018-06-20T23:35:05.871Z,6.96
2018-06-20T23:37:06.568Z,7
2018-06-20T23:41:07.394Z,7.46
2018-06-20T23:47:08.066Z,7.47
2018-06-20T23:51:08.792Z,7.12
2018-06-20T23:57:09.588Z,7.28
